KRCA/RCA METAR and TAF weather

Enter ICAO airport designator
Station Type Date Time Source
KRCA METAR 2019/04/25 15:56 UTC NOAA

KRCA 251556Z AUTO 33019G25KT 10SM CLR 13/05 A3014 RMK AO2 PK WND 35029/35 SLP210 T01300052 $


Station Type Date Time Source
KRCA Decoded METAR 2019/04/25 15:56 UTC NOAA

Ellsworth Air Force Base, SD, United States (KRCA) 44-09N 103-06W
Apr 25, 2019 - 11:56 AM EDT / 2019.04.25 1556 UTC
Wind: from the NNW (330 degrees) at 22 MPH (19 KT) gusting to 29 MPH (25 KT):0
Visibility: 10 mile(s):0
Sky conditions: clear
Temperature: 55.4 F (13.0 C)
Dew Point: 41.4 F (5.2 C)
Relative Humidity: 59%
Pressure (altimeter): 30.14 in. Hg (1020 hPa)
ob: KRCA 251556Z AUTO 33019G25KT 10SM CLR 13/05 A3014 RMK AO2 PK WND 35029/35 SLP210 T01300052
cycle: 16

Station Type Date Time Source
KRCA TAF 2019/04/25 11:06 UTC NOAA

TAF KRCA 251100Z 2511/2617 31012KT 9999 SKC QNH3004INS
BECMG 2514/2515 32012G18KT 9999 SKC 510001 QNH3009INS
BECMG 2517/2518 32015G25KT 9999 SKC 520001 QNH3015INS
BECMG 2600/2601 VRB06KT 9999 FEW050 QNH2999INS TX16/2521Z TN04/2611Z

Example: see airport list